• Join FlightAware (Why Join?)
  • Login
  • US Flag 
Gobble Gobble! 
06:33PM EST


 

Airport Tracker/Info


-or-


 

Live Flight TrackerFlight Track Log ✈ UPS1121 ✈ 14-Jun-2013 ✈ KBDL - KSDF

Flight Track Log - Related Links

Times and Time Zones

All times are in EDT time to prevent confusion due to time zone crossing. See the UPS1121 flight status page for this flight to view local times or setup timezone preferences in your user account.

Time Position Orientation Groundspeed Altitude Reporting Facility
EDT Latitude Longitude Course Direction KTS MPH feet Rate Location/Type
11:07PM 41.9458 -72.7025 280° West 160 184 1,300  Level Boston Center
11:08PM 41.9561 -72.7778 280° West 160 184 3,800 1,980 Climbing Boston Center
11:09PM 41.9161 -72.8419 230° Southwest 187 215 5,800 2,820 Climbing Boston Center
11:10PM 41.8678 -72.9558 240° Southwest 245 282 9,500 2,760 Climbing Boston Center
11:11PM 41.8547 -73.0589 260° West 301 346 11,400 2,100 Climbing Boston Center
11:12PM 41.8331 -73.2036 259° West 352 405 13,700 2,280 Climbing Boston Center
11:13PM 41.8156 -73.3286 259° West 374 430 16,000 2,460 Climbing Boston Center
11:14PM 41.7892 -73.4786 257° West 385 443 18,700 2,340 Climbing Boston Center
11:15PM 41.7483 -73.6172 248° West 391 450 20,700 1,740 Climbing Boston Center
11:16PM 41.6764 -73.7131 225° Southwest 398 458 22,200 1,560 Climbing Boston Center
11:18PM 41.4400 -73.9314 215° Southwest 463 533 25,800 1,620 Climbing New York Center
11:19PM 41.3189 -74.0225 209° Southwest 490 564 27,600 1,740 Climbing New York Center
11:20PM 41.1914 -74.1100 207° Southwest 505 581 29,300 1,980 Climbing New York Center
11:21PM 41.0761 -74.2144 214° Southwest 512 589 31,600 2,100 Climbing New York Center
11:22PM 41.0047 -74.3647 238° Southwest 483 556 33,500 1,200 Climbing New York Center
11:23PM 40.9378 -74.5122 239° Southwest 483 556 34,000 240 Climbing New York Center
11:24PM 40.8700 -74.6706 241° Southwest 488 562 34,000  Level New York Center
11:25PM 40.7936 -74.8414 239° Southwest 494 568 34,000  Level New York Center
11:26PM 40.7236 -74.9961 239° Southwest 499 574 34,000  Level New York Center
11:27PM 40.6553 -75.1506 240° Southwest 493 567 34,000  Level New York Center
11:28PM 40.5853 -75.2992 238° Southwest 493 567 34,000  Level New York Center
11:29PM 40.5142 -75.4608 240° Southwest 498 573 34,000  Level New York Center
11:30PM 40.4436 -75.6117 238° Southwest 498 573 34,000  Level New York Center
11:31PM 40.3747 -75.7622 239° Southwest 498 573 34,000  Level New York Center
11:32PM 40.3042 -75.9014 236° Southwest 500 575 34,000  Level New York Center
11:33PM 40.2306 -76.0561 238° Southwest 507 583 34,000  Level New York Center
11:34PM 40.1586 -76.2219 240° Southwest 502 578 34,000  Level New York Center
11:35PM 40.0875 -76.3575 236° Southwest 502 578 34,000  Level New York Center
11:36PM 40.0339 -76.5186 247° West 490 564 34,000  Level New York Center
11:39PM 39.9317 -76.8928 250° West 484 557 34,000  Level Washington Center
11:40PM 39.8881 -77.0597 251° West 479 551 34,000  Level Washington Center
11:41PM 39.8422 -77.2236 250° West 479 551 34,000  Level Washington Center
11:42PM 39.8003 -77.3819 251° West 484 557 34,000  Level Washington Center
11:43PM 39.7561 -77.5456 251° West 484 557 34,000  Level Washington Center
11:44PM 39.7097 -77.7061 249° West 484 557 34,000  Level Washington Center
11:45PM 39.6650 -77.8694 250° West 484 557 34,000  Level Washington Center
11:46PM 39.6203 -78.0269 250° West 484 557 34,000  Level Washington Center
11:47PM 39.5753 -78.1869 250° West 484 557 34,000  Level Washington Center
11:48PM 39.5300 -78.3467 250° West 479 551 34,000  Level Washington Center
11:49PM 39.4847 -78.5036 250° West 479 551 34,000  Level Washington Center
11:50PM 39.4414 -78.6578 250° West 479 551 34,000  Level Washington Center
11:51PM 39.3978 -78.8117 250° West 469 540 34,000  Level Washington Center
11:52PM 39.3517 -78.9681 249° West 469 540 34,000  Level Washington Center
11:53PM 39.3078 -79.1242 250° West 468 539 34,000  Level Washington Center
11:54PM 39.2589 -79.2908 249° West 462 532 34,000  Level Washington Center
11:55PM 39.2122 -79.4492 249° West 462 532 34,000  Level Washington Center
11:56PM 39.1675 -79.6047 250° West 462 532 34,000  Level Washington Center
11:56PM 39.1206 -79.7600 249° West 467 537 34,000  Level Washington Center
11:58PM 39.0733 -79.9150 249° West 467 537 34,000  Level Washington Center
11:58PM 39.0389 -80.0153 246° West 467 537 34,000  Level Indianapolis Center
11:59PM 38.9900 -80.1728 248° West 466 536 34,000  Level Indianapolis Center
12:00AM 38.9428 -80.3289 249° West 468 539 34,000  Level Indianapolis Center
12:01AM 38.8942 -80.4850 248° West 470 541 34,000  Level Indianapolis Center
12:02AM 38.8472 -80.6389 249° West 464 534 34,000  Level Indianapolis Center
12:03AM 38.7975 -80.7944 248° West 470 541 34,000  Level Indianapolis Center
12:04AM 38.7494 -80.9494 248° West 469 540 34,000  Level Indianapolis Center
12:05AM 38.7003 -81.1036 248° West 466 536 34,000  Level Indianapolis Center
12:06AM 38.6517 -81.2586 248° West 466 536 34,000  Level Indianapolis Center
12:07AM 38.6003 -81.4169 247° West 472 543 34,000  Level Indianapolis Center
12:08AM 38.5489 -81.5814 248° West 480 552 34,000  Level Indianapolis Center
12:09AM 38.4986 -81.7400 248° West 475 547 34,000  Level Indianapolis Center
12:10AM 38.4475 -81.8972 247° West 478 550 34,000  Level Indianapolis Center
12:11AM 38.3967 -82.0533 247° West 475 547 34,000  Level Indianapolis Center
12:12AM 38.3447 -82.2092 247° West 476 548 34,000  Level Indianapolis Center
12:13AM 38.2925 -82.3656 247° West 479 551 34,000  Level Indianapolis Center
12:14AM 38.2403 -82.5333 248° West 480 552 34,000  Level Indianapolis Center
12:15AM 38.2006 -82.6906 252° West 470 541 34,000  Level Indianapolis Center
12:16AM 38.1664 -82.8497 255° West 467 537 34,000  Level Indianapolis Center
12:17AM 38.1306 -82.9981 253° West 444 511 34,000  Level Indianapolis Center
12:18AM 38.0981 -83.1419 254° West 428 493 34,000 -60 Level Indianapolis Center
12:19AM 38.0639 -83.2875 253° West 429 494 33,900 -780 Descending Indianapolis Center
12:20AM 38.0297 -83.4306 253° West 425 489 32,500 -1,320 Descending Indianapolis Center
12:21AM 37.9956 -83.5761 253° West 430 495 31,300 -1,140 Descending Indianapolis Center
12:22AM 37.9603 -83.7186 253° West 426 490 30,300 -1,020 Descending Indianapolis Center
12:23AM 37.9269 -83.8575 253° West 416 479 29,300 -1,020 Descending Indianapolis Center
12:24AM 37.8953 -83.9881 253° West 395 455 28,300 -1,080 Descending Indianapolis Center
12:25AM 37.8642 -84.1150 253° West 380 437 27,200 -1,440 Descending Indianapolis Center
12:26AM 37.8336 -84.2392 253° West 372 428 25,400 -1,800 Descending Indianapolis Center
12:28AM 37.8044 -84.3614 253° West 363 418 23,600 -2,040 Descending Indianapolis Center
12:29AM 37.7739 -84.4797 252° West 357 411 21,400 -2,520 Descending Indianapolis Center
12:30AM 37.7450 -84.5933 252° West 339 390 18,600 -2,640 Descending Indianapolis Center
12:31AM 37.7189 -84.7017 253° West 327 376 16,100 -2,760 Descending Indianapolis Center
12:32AM 37.6894 -84.8214 253° West 306 352 13,100 -2,580 Descending Indianapolis Center
12:33AM 37.6667 -84.9483 257° West 373 429 10,900 -1,560 Descending Indianapolis Center
12:34AM 37.7247 -85.0519 305° West 364 419 10,000 -480 Descending Indianapolis Center
12:35AM 37.7917 -85.1436 313° West 352 405 10,000 -300 Level Indianapolis Center
12:36AM 37.8653 -85.1886 334° Northwest 303 349 9,400 -840 Descending Indianapolis Center
12:37AM 37.9236 -85.2167 339° North 284 327 8,400 -1,440 Descending Indianapolis Center
12:38AM 38.0069 -85.2581 339° North 271 312 6,600 -1,200 Descending Indianapolis Center
12:39AM 38.0769 -85.2961 337° Northwest 272 313 6,000 -900 Descending Indianapolis Center
12:40AM 38.1053 -85.3731 295° West 278 320 4,900 -1,200 Descending Indianapolis Center
12:41AM 38.0758 -85.4636 248° West 276 318 3,600 -960 Descending Indianapolis Center
12:42AM 38.0508 -85.5525 250° West 272 313 3,000 -300 Descending Indianapolis Center
12:43AM 38.0289 -85.6239 249° West 246 283 3,000 -300 Level Indianapolis Center
12:44AM 38.0597 -85.6783 306° West 219 252 2,400 -600 Descending Indianapolis Center
12:45AM 38.1017 -85.7019 336° Northwest 185 213 1,800 -600 Descending Indianapolis Center
12:47AM 38.1667 -85.7333 208° Southwest  Level FlightAware Approximate
12:54AM 38.1741 -85.7365 208° Southwest  Level Estimated